createdAt,value
2023-05-05T00:01:41.024Z,13.61
2023-05-05T00:04:10.528Z,13.54
2023-05-05T00:06:38.708Z,13.53
2023-05-05T00:09:07.132Z,13.51
2023-05-05T00:11:35.286Z,13.61
2023-05-05T00:14:03.378Z,13.55
2023-05-05T00:16:31.583Z,13.49
2023-05-05T00:19:01.149Z,13.31
2023-05-05T00:21:31.030Z,13.48
2023-05-05T00:23:59.298Z,13.51
2023-05-05T00:26:27.377Z,13.53
2023-05-05T00:28:55.506Z,13.46
2023-05-05T00:31:23.753Z,13.41
2023-05-05T00:33:51.985Z,13.45
2023-05-05T00:36:20.337Z,13.39
2023-05-05T00:38:49.858Z,13.34
2023-05-05T00:41:17.919Z,13.16
2023-05-05T00:43:46.297Z,13.05
2023-05-05T00:46:23.424Z,13.10
2023-05-05T00:48:52.353Z,13.00
2023-05-05T00:51:22.139Z,13.02
2023-05-05T00:54:17.659Z,13.07
2023-05-05T00:56:45.911Z,12.97
2023-05-05T00:59:14.208Z,12.95
2023-05-05T01:01:42.499Z,13.00
2023-05-05T01:04:10.824Z,12.97
2023-05-05T01:06:55.207Z,12.91
2023-05-05T01:09:36.219Z,12.92
2023-05-05T01:12:16.166Z,12.84
2023-05-05T01:14:48.463Z,12.87
2023-05-05T01:17:19.001Z,12.97
2023-05-05T01:20:00.197Z,13.00
2023-05-05T01:22:35.040Z,13.04
2023-05-05T01:25:45.694Z,13.03
2023-05-05T01:28:25.526Z,13.07
2023-05-05T01:31:07.467Z,13.00
2023-05-05T01:33:44.904Z,12.99
2023-05-05T01:36:22.673Z,12.94
2023-05-05T01:38:56.304Z,12.88
2023-05-05T01:41:29.176Z,12.92
2023-05-05T01:44:00.852Z,12.82
2023-05-05T01:46:29.567Z,12.79
2023-05-05T01:49:00.185Z,12.86
2023-05-05T01:51:29.187Z,12.74
2023-05-05T01:54:00.204Z,12.71
2023-05-05T01:56:31.049Z,12.69
2023-05-05T01:59:01.617Z,12.61
2023-05-05T02:01:31.945Z,12.72
2023-05-05T02:04:04.365Z,12.54
2023-05-05T02:06:34.714Z,12.73
2023-05-05T02:09:03.862Z,12.72
2023-05-05T02:11:32.747Z,12.66
2023-05-05T02:14:02.023Z,12.78
2023-05-05T02:16:31.238Z,12.76
2023-05-05T02:19:05.177Z,12.76
2023-05-05T02:21:34.871Z,12.74
2023-05-05T02:24:04.784Z,12.78
2023-05-05T02:26:36.343Z,12.69
2023-05-05T02:29:08.617Z,12.66
2023-05-05T02:31:45.199Z,12.66
2023-05-05T02:34:22.644Z,12.55
2023-05-05T02:36:54.445Z,12.58
2023-05-05T02:39:33.138Z,12.62
2023-05-05T02:42:09.482Z,12.56
2023-05-05T02:44:42.513Z,12.54
2023-05-05T02:47:13.519Z,12.51
2023-05-05T02:49:43.903Z,12.37
2023-05-05T02:52:12.230Z,12.52
2023-05-05T02:54:42.143Z,12.45
2023-05-05T02:57:19.441Z,12.48
2023-05-05T02:59:59.484Z,12.46
2023-05-05T03:02:35.062Z,12.32
2023-05-05T03:05:12.958Z,12.49
2023-05-05T03:07:54.734Z,12.47
2023-05-05T03:10:30.133Z,12.38
2023-05-05T03:13:03.415Z,12.45
2023-05-05T03:15:47.105Z,12.37
2023-05-05T03:18:19.277Z,12.48
2023-05-05T03:20:55.088Z,12.40
2023-05-05T03:23:23.388Z,12.40
2023-05-05T03:25:56.693Z,12.36
2023-05-05T03:28:31.163Z,12.40
2023-05-05T03:31:02.400Z,12.09
2023-05-05T03:33:33.140Z,12.26
2023-05-05T03:36:03.716Z,12.27
2023-05-05T03:38:31.782Z,12.30
2023-05-05T03:41:03.469Z,12.29
2023-05-05T03:43:32.833Z,12.27
2023-05-05T03:46:01.093Z,12.36
2023-05-05T03:48:30.327Z,12.40
2023-05-05T03:50:58.746Z,12.41
2023-05-05T03:53:30.816Z,12.33
2023-05-05T03:55:59.312Z,12.37
2023-05-05T03:58:27.542Z,12.33
2023-05-05T04:00:55.643Z,12.33
2023-05-05T04:03:23.888Z,12.27
2023-05-05T04:05:52.157Z,12.45
2023-05-05T04:08:21.144Z,12.55
2023-05-05T04:10:51.102Z,12.54
2023-05-05T04:13:19.233Z,12.57
2023-05-05T04:15:48.091Z,12.68
2023-05-05T04:18:17.420Z,12.79
2023-05-05T04:20:45.661Z,12.76
2023-05-05T04:23:13.996Z,12.58
2023-05-05T04:25:42.779Z,12.52
2023-05-05T04:28:13.920Z,12.48
2023-05-05T04:30:42.641Z,12.53
2023-05-05T04:33:10.886Z,12.50
2023-05-05T04:35:39.079Z,12.53
2023-05-05T04:38:07.274Z,12.62
2023-05-05T04:40:40.075Z,12.57
2023-05-05T04:43:08.961Z,12.60
2023-05-05T04:45:39.304Z,12.63
2023-05-05T04:48:07.805Z,12.43
2023-05-05T04:50:37.100Z,12.57
2023-05-05T04:53:05.365Z,12.56
2023-05-05T04:55:34.043Z,12.72
2023-05-05T04:58:02.197Z,12.81
2023-05-05T05:00:30.633Z,12.78
2023-05-05T05:03:00.281Z,12.86
2023-05-05T05:05:28.410Z,12.90
2023-05-05T05:07:57.004Z,12.91
2023-05-05T05:10:25.165Z,13.10
2023-05-05T05:12:53.274Z,13.20
2023-05-05T05:15:21.977Z,13.05
2023-05-05T05:17:50.380Z,13.07
2023-05-05T05:20:20.367Z,13.32
2023-05-05T05:22:48.640Z,13.34
2023-05-05T05:25:19.722Z,13.39
2023-05-05T05:28:01.968Z,13.63
2023-05-05T05:30:37.490Z,13.60
2023-05-05T05:33:07.913Z,13.73
2023-05-05T05:35:37.732Z,13.73
2023-05-05T05:38:06.323Z,13.81
2023-05-05T05:40:35.088Z,13.76
2023-05-05T05:43:04.184Z,13.87
2023-05-05T05:45:32.636Z,13.87
2023-05-05T05:48:00.908Z,13.84
2023-05-05T05:50:29.098Z,13.63
2023-05-05T05:53:00.733Z,13.59
2023-05-05T05:55:29.824Z,13.38
2023-05-05T05:57:58.092Z,13.33
2023-05-05T06:00:27.112Z,13.24
2023-05-05T06:03:03.097Z,13.23
2023-05-05T06:05:34.468Z,13.25
2023-05-05T06:08:04.040Z,13.39
2023-05-05T06:10:35.708Z,13.35
2023-05-05T06:13:11.395Z,13.25
2023-05-05T06:15:43.628Z,13.13
2023-05-05T06:18:14.039Z,13.17
2023-05-05T06:20:43.505Z,13.28
2023-05-05T06:23:14.311Z,13.56
2023-05-05T06:25:48.060Z,13.80
2023-05-05T06:28:16.293Z,14.08
2023-05-05T06:30:44.854Z,14.17
2023-05-05T06:33:13.117Z,14.41
2023-05-05T06:35:41.244Z,14.51
2023-05-05T06:38:09.813Z,14.56
2023-05-05T06:40:39.243Z,14.52
2023-05-05T06:43:07.794Z,14.94
2023-05-05T06:45:43.665Z,14.92
2023-05-05T06:48:11.977Z,14.74
2023-05-05T06:50:40.003Z,14.81
2023-05-05T06:53:08.110Z,14.75
2023-05-05T06:55:36.281Z,14.72
2023-05-05T06:58:05.826Z,14.51
2023-05-05T07:00:34.069Z,14.24
2023-05-05T07:03:02.422Z,14.31
2023-05-05T07:05:31.090Z,14.41
2023-05-05T07:07:59.757Z,14.40
2023-05-05T07:10:28.892Z,14.03
2023-05-05T07:12:57.160Z,13.61
2023-05-05T07:15:29.188Z,13.44
2023-05-05T07:17:58.238Z,13.25
2023-05-05T07:20:27.154Z,13.27
2023-05-05T07:22:55.270Z,13.40
2023-05-05T07:25:23.424Z,13.37
2023-05-05T07:27:51.720Z,13.21
2023-05-05T07:30:20.170Z,13.16
2023-05-05T07:32:51.330Z,13.19
2023-05-05T07:35:19.623Z,13.35
2023-05-05T07:37:48.082Z,13.34
2023-05-05T07:40:16.506Z,13.38
2023-05-05T07:42:44.658Z,13.42
2023-05-05T07:45:12.819Z,13.34
2023-05-05T07:47:41.767Z,13.56
2023-05-05T07:50:12.428Z,13.66
2023-05-05T07:55:11.740Z,13.70
2023-05-05T07:57:39.878Z,13.87
2023-05-05T08:00:09.490Z,13.94
2023-05-05T08:02:41.244Z,13.88
2023-05-05T08:05:11.467Z,13.92
2023-05-05T08:07:41.527Z,13.97
2023-05-05T08:10:11.264Z,13.94
2023-05-05T08:12:39.502Z,14.04
2023-05-05T08:15:08.786Z,14.00
2023-05-05T08:17:48.662Z,14.28
2023-05-05T08:20:19.443Z,14.24
2023-05-05T08:22:48.003Z,14.37
2023-05-05T08:25:16.224Z,14.50
2023-05-05T08:27:44.609Z,14.60
2023-05-05T08:30:13.424Z,14.60
2023-05-05T08:32:41.616Z,14.81
2023-05-05T08:35:10.614Z,15.05
2023-05-05T08:37:40.524Z,15.29
2023-05-05T08:40:12.219Z,15.25
2023-05-05T08:42:40.466Z,15.46
2023-05-05T08:45:10.655Z,15.39
2023-05-05T08:47:40.253Z,15.55
2023-05-05T08:50:11.858Z,15.76
2023-05-05T08:52:44.352Z,16.00
2023-05-05T08:55:24.068Z,16.11
2023-05-05T08:57:53.888Z,16.36
2023-05-05T09:00:22.705Z,16.13
2023-05-05T09:02:51.385Z,16.21
2023-05-05T09:05:19.796Z,16.47
2023-05-05T09:07:49.487Z,17.05
2023-05-05T09:10:18.384Z,17.33
2023-05-05T09:12:46.625Z,17.82
2023-05-05T09:15:16.379Z,17.99
2023-05-05T09:17:44.669Z,18.13
2023-05-05T09:20:14.319Z,18.25
2023-05-05T09:22:44.907Z,18.48
2023-05-05T09:25:16.526Z,18.93
2023-05-05T09:27:46.868Z,19.09
2023-05-05T09:30:18.060Z,19.24
2023-05-05T09:32:48.083Z,19.38
2023-05-05T09:35:16.986Z,19.34
2023-05-05T09:37:46.075Z,19.57
2023-05-05T09:40:18.316Z,19.33
2023-05-05T09:42:47.348Z,19.34
2023-05-05T09:45:28.692Z,19.55
2023-05-05T09:48:00.403Z,19.56
2023-05-05T09:50:31.043Z,19.49
2023-05-05T09:53:00.864Z,19.30
2023-05-05T09:55:31.984Z,19.39
2023-05-05T09:58:19.267Z,19.32
2023-05-05T10:00:47.717Z,19.66
2023-05-05T10:03:16.178Z,19.77
2023-05-05T10:05:52.049Z,19.33
2023-05-05T10:08:22.014Z,19.29
2023-05-05T10:10:55.909Z,19.57
2023-05-05T10:13:26.106Z,20.17
2023-05-05T10:15:55.644Z,20.22
2023-05-05T10:18:25.055Z,20.08
2023-05-05T10:20:59.308Z,20.46
2023-05-05T10:23:33.989Z,20.66
2023-05-05T10:26:05.918Z,21.12
2023-05-05T10:28:35.681Z,21.18
2023-05-05T10:31:16.527Z,20.94
2023-05-05T10:33:56.219Z,21.19
2023-05-05T10:36:26.429Z,20.69
2023-05-05T10:38:57.798Z,20.73
2023-05-05T10:41:27.628Z,20.59
2023-05-05T10:43:57.781Z,20.67
2023-05-05T10:46:27.955Z,20.85
2023-05-05T10:49:00.807Z,21.27
2023-05-05T10:51:40.331Z,21.42
2023-05-05T10:54:15.288Z,21.59
2023-05-05T10:56:45.160Z,21.32
2023-05-05T10:59:41.360Z,21.37
2023-05-05T11:02:28.046Z,21.19
2023-05-05T11:05:07.539Z,21.38
2023-05-05T11:07:35.982Z,21.55
2023-05-05T11:10:06.121Z,21.39
2023-05-05T11:13:13.501Z,21.13
2023-05-05T11:15:41.863Z,21.46
2023-05-05T11:18:29.997Z,22.20
2023-05-05T11:21:15.636Z,22.45
2023-05-05T11:23:52.403Z,22.66
2023-05-05T11:26:51.088Z,22.88
2023-05-05T11:29:20.561Z,23.01
2023-05-05T11:32:12.389Z,22.41
2023-05-05T11:34:50.145Z,22.59
2023-05-05T11:37:18.336Z,22.96
2023-05-05T11:40:01.462Z,22.91
2023-05-05T11:42:30.334Z,23.19
2023-05-05T11:45:00.562Z,23.08
2023-05-05T11:47:30.856Z,23.15
2023-05-05T11:49:59.296Z,23.19
2023-05-05T11:52:30.909Z,23.01
2023-05-05T11:55:03.793Z,22.89
2023-05-05T11:57:32.275Z,22.78
2023-05-05T12:00:03.592Z,22.66
2023-05-05T12:02:35.218Z,22.68
2023-05-05T12:05:04.003Z,22.71
2023-05-05T12:07:34.220Z,22.68
2023-05-05T12:10:02.725Z,22.52
2023-05-05T12:12:39.431Z,22.44
2023-05-05T12:15:10.546Z,22.58
2023-05-05T12:17:45.051Z,22.55
2023-05-05T12:20:14.268Z,22.49
2023-05-05T12:22:42.766Z,22.98
2023-05-05T12:25:11.728Z,23.40
2023-05-05T12:27:41.360Z,23.41
2023-05-05T12:30:16.904Z,23.17
2023-05-05T12:32:46.482Z,23.58
2023-05-05T12:35:16.148Z,23.71
2023-05-05T12:37:44.868Z,23.64
2023-05-05T12:40:44.748Z,22.93
2023-05-05T12:43:25.553Z,22.80
2023-05-05T12:46:06.081Z,23.27
2023-05-05T12:48:35.749Z,23.36
2023-05-05T12:51:18.144Z,23.22
2023-05-05T12:53:47.396Z,23.17
2023-05-05T12:56:35.440Z,23.20
2023-05-05T12:59:05.482Z,23.50
2023-05-05T13:01:35.756Z,23.14
2023-05-05T13:04:13.029Z,22.83
2023-05-05T13:06:43.123Z,22.43
2023-05-05T13:09:24.139Z,21.97
2023-05-05T13:11:53.265Z,22.01
2023-05-05T13:14:21.811Z,21.73
2023-05-05T13:16:51.532Z,21.62
2023-05-05T13:19:19.808Z,21.63
2023-05-05T13:21:48.189Z,21.61
2023-05-05T13:26:48.562Z,21.50
2023-05-05T13:29:17.554Z,21.53
2023-05-05T13:31:46.412Z,21.66
2023-05-05T13:34:16.083Z,21.71
2023-05-05T13:36:44.191Z,21.59
2023-05-05T13:39:12.605Z,21.38
2023-05-05T13:41:40.915Z,21.65
2023-05-05T13:44:09.118Z,21.77
2023-05-05T13:46:37.231Z,21.94
2023-05-05T13:49:05.421Z,21.78
2023-05-05T13:51:35.607Z,21.68
2023-05-05T13:54:04.006Z,21.70
2023-05-05T13:56:32.591Z,21.68
2023-05-05T13:59:00.966Z,22.00
2023-05-05T14:01:30.140Z,21.77
2023-05-05T14:03:58.840Z,21.60
2023-05-05T14:06:27.766Z,21.54
2023-05-05T14:08:57.264Z,21.73
2023-05-05T14:11:25.383Z,21.67
2023-05-05T14:13:53.631Z,21.60
2023-05-05T14:16:21.770Z,21.40
2023-05-05T14:18:49.922Z,21.35
2023-05-05T14:21:18.048Z,21.19
2023-05-05T14:23:46.398Z,21.25
2023-05-05T14:26:16.203Z,21.02
2023-05-05T14:28:47.235Z,20.83
2023-05-05T14:31:17.573Z,20.53
2023-05-05T14:33:46.022Z,20.42
2023-05-05T14:36:14.400Z,20.61
2023-05-05T14:38:43.894Z,20.52
2023-05-05T14:41:12.385Z,20.35
2023-05-05T14:43:42.056Z,20.24
2023-05-05T14:46:10.629Z,20.27
2023-05-05T14:48:39.400Z,19.22
2023-05-05T14:51:08.290Z,18.71
2023-05-05T14:53:36.573Z,18.24
2023-05-05T14:56:04.964Z,18.10
2023-05-05T14:58:33.234Z,17.75
2023-05-05T15:01:02.922Z,16.81
2023-05-05T15:03:31.749Z,15.87
2023-05-05T15:06:00.404Z,15.33
2023-05-05T15:08:29.069Z,14.75
2023-05-05T15:10:57.482Z,14.56
2023-05-05T15:13:25.700Z,14.43
2023-05-05T15:15:54.200Z,14.62
2023-05-05T15:18:24.221Z,14.60
2023-05-05T15:20:52.423Z,14.59
2023-05-05T15:23:21.243Z,14.55
2023-05-05T15:25:49.712Z,14.66
2023-05-05T15:28:18.794Z,14.79
2023-05-05T15:30:47.544Z,14.83
2023-05-05T15:33:15.817Z,14.98
2023-05-05T15:35:46.786Z,14.89
2023-05-05T15:38:15.480Z,15.07
2023-05-05T15:40:47.215Z,15.02
2023-05-05T15:43:17.576Z,14.69
2023-05-05T15:45:45.977Z,14.89
2023-05-05T15:48:14.492Z,14.89
2023-05-05T15:50:42.803Z,14.94
2023-05-05T15:53:12.464Z,14.98
2023-05-05T15:55:40.977Z,15.05
2023-05-05T15:58:09.087Z,15.18
2023-05-05T16:00:37.403Z,15.25
2023-05-05T16:03:05.958Z,15.28
2023-05-05T16:05:34.419Z,15.17
2023-05-05T16:08:07.402Z,15.29
2023-05-05T16:10:36.892Z,15.33
2023-05-05T16:13:05.106Z,15.40
2023-05-05T16:15:33.281Z,15.31
2023-05-05T16:18:01.400Z,15.44
2023-05-05T16:20:29.718Z,15.60
2023-05-05T16:22:58.575Z,15.52
2023-05-05T16:25:28.104Z,15.59
2023-05-05T16:27:57.675Z,15.56
2023-05-05T16:30:26.001Z,15.64
2023-05-05T16:32:54.841Z,15.51
2023-05-05T16:35:23.938Z,15.56
2023-05-05T16:37:52.560Z,15.53
2023-05-05T16:40:20.636Z,15.52
2023-05-05T16:42:48.915Z,15.51
2023-05-05T16:45:18.511Z,15.29
2023-05-05T16:47:46.872Z,15.15
2023-05-05T16:50:16.557Z,15.08
2023-05-05T16:52:45.427Z,14.90
2023-05-05T16:55:13.625Z,14.70
2023-05-05T16:57:42.111Z,14.72
2023-05-05T17:00:12.151Z,14.78
2023-05-05T17:02:41.724Z,14.76
2023-05-05T17:05:10.950Z,14.75
2023-05-05T17:07:40.208Z,14.73
2023-05-05T17:10:09.661Z,14.80
2023-05-05T17:12:37.892Z,14.82
2023-05-05T17:15:07.037Z,14.85
2023-05-05T17:17:35.156Z,14.92
2023-05-05T17:20:04.854Z,15.01
2023-05-05T17:22:32.966Z,15.06
2023-05-05T17:25:00.868Z,14.89
2023-05-05T17:27:28.769Z,14.92
2023-05-05T17:29:56.879Z,14.96
2023-05-05T17:32:24.829Z,14.92
2023-05-05T17:34:52.947Z,14.81
2023-05-05T17:37:22.144Z,14.81
2023-05-05T17:39:50.083Z,14.84
2023-05-05T17:42:22.824Z,14.74
2023-05-05T17:44:51.006Z,14.70
2023-05-05T17:47:22.523Z,14.77
2023-05-05T17:49:52.576Z,14.65
2023-05-05T17:52:24.122Z,14.59
2023-05-05T17:54:53.008Z,14.76
2023-05-05T17:57:22.975Z,14.59
2023-05-05T17:59:53.512Z,14.67
2023-05-05T18:02:22.239Z,14.68
2023-05-05T18:04:51.122Z,14.59
2023-05-05T18:07:22.819Z,14.65
2023-05-05T18:09:52.167Z,14.69
2023-05-05T18:12:21.948Z,14.58
2023-05-05T18:14:50.214Z,14.60
2023-05-05T18:17:18.398Z,14.65
2023-05-05T18:19:49.124Z,14.55
2023-05-05T18:22:17.687Z,14.51
2023-05-05T18:24:47.744Z,14.46
2023-05-05T18:27:17.283Z,14.44
2023-05-05T18:29:47.310Z,14.44
2023-05-05T18:32:17.480Z,14.74
2023-05-05T18:34:45.815Z,14.64
2023-05-05T18:37:14.913Z,14.47
2023-05-05T18:39:44.144Z,14.49
2023-05-05T18:42:15.353Z,14.78
2023-05-05T18:45:10.627Z,14.78
2023-05-05T18:47:39.683Z,14.60
2023-05-05T18:50:09.982Z,14.66
2023-05-05T18:52:38.482Z,14.75
2023-05-05T18:57:40.478Z,14.89
2023-05-05T19:00:13.203Z,14.68
2023-05-05T19:02:41.472Z,14.54
2023-05-05T19:05:10.824Z,14.35
2023-05-05T19:07:41.280Z,14.14
2023-05-05T19:10:11.618Z,14.24
2023-05-05T19:12:41.534Z,13.98
2023-05-05T19:15:13.915Z,14.16
2023-05-05T19:17:43.201Z,14.18
2023-05-05T19:20:13.233Z,14.11
2023-05-05T19:22:42.090Z,14.10
2023-05-05T19:25:14.272Z,14.00
2023-05-05T19:27:44.822Z,13.89
2023-05-05T19:30:13.891Z,13.77
2023-05-05T19:32:43.240Z,13.96
2023-05-05T19:35:12.359Z,13.88
2023-05-05T19:37:41.376Z,13.90
2023-05-05T19:40:11.171Z,13.75
2023-05-05T19:42:41.173Z,13.79
2023-05-05T19:45:12.225Z,13.97
2023-05-05T19:47:42.360Z,13.87
2023-05-05T19:50:16.158Z,13.73
2023-05-05T19:52:45.745Z,13.77
2023-05-05T19:55:14.384Z,13.92
2023-05-05T19:57:43.950Z,13.66
2023-05-05T20:00:16.230Z,13.69
2023-05-05T20:02:45.822Z,13.56
2023-05-05T20:05:18.297Z,13.64
2023-05-05T20:07:47.492Z,13.58
2023-05-05T20:10:16.833Z,13.60
2023-05-05T20:12:48.344Z,13.65
2023-05-05T20:15:22.406Z,13.59
2023-05-05T20:17:56.923Z,13.68
2023-05-05T20:20:25.809Z,13.77
2023-05-05T20:23:44.313Z,13.70
2023-05-05T20:26:24.476Z,13.70
2023-05-05T20:28:57.173Z,13.80
2023-05-05T20:31:26.571Z,13.73
2023-05-05T20:33:54.524Z,13.65
2023-05-05T20:36:22.834Z,13.60
2023-05-05T20:38:51.867Z,13.51
2023-05-05T20:41:19.648Z,13.44
2023-05-05T20:43:47.480Z,13.40
2023-05-05T20:46:15.328Z,13.28
2023-05-05T20:48:45.090Z,13.22
2023-05-05T20:51:13.073Z,13.12
2023-05-05T20:53:41.065Z,13.14
2023-05-05T20:56:09.193Z,12.99
2023-05-05T20:58:37.682Z,13.08
2023-05-05T21:01:06.068Z,13.04
2023-05-05T21:03:34.127Z,12.91
2023-05-05T21:06:03.931Z,12.74
2023-05-05T21:08:31.721Z,12.71
2023-05-05T21:10:59.486Z,12.58
2023-05-05T21:13:27.230Z,12.52
2023-05-05T21:15:57.124Z,12.47
2023-05-05T21:18:27.536Z,12.44
2023-05-05T21:20:55.367Z,12.44
2023-05-05T21:23:24.893Z,12.48
2023-05-05T21:25:53.246Z,12.54
2023-05-05T21:28:25.150Z,12.56
2023-05-05T21:31:19.625Z,12.63
2023-05-05T21:33:43.125Z,12.70
2023-05-05T21:36:11.384Z,12.76
2023-05-05T21:38:40.995Z,12.77
2023-05-05T21:41:09.306Z,12.64
2023-05-05T21:43:37.713Z,12.57
2023-05-05T21:46:06.602Z,12.48
2023-05-05T21:48:34.997Z,12.42
2023-05-05T21:51:03.265Z,12.49
2023-05-05T21:53:31.625Z,12.39
2023-05-05T21:56:01.304Z,12.46
2023-05-05T21:58:29.592Z,12.53
2023-05-05T22:00:59.822Z,12.56
2023-05-05T22:03:28.497Z,12.58
2023-05-05T22:05:56.825Z,12.54
2023-05-05T22:08:25.210Z,12.59
2023-05-05T22:10:53.495Z,12.65
2023-05-05T22:13:23.270Z,12.59
2023-05-05T22:15:51.792Z,12.55
2023-05-05T22:18:20.123Z,12.57
2023-05-05T22:20:48.448Z,12.57
2023-05-05T22:23:17.386Z,12.52
2023-05-05T22:25:46.586Z,12.51
2023-05-05T22:28:14.883Z,12.26
2023-05-05T22:30:44.526Z,12.69
2023-05-05T22:33:12.873Z,12.64
2023-05-05T22:35:43.150Z,12.61
2023-05-05T22:38:12.179Z,12.64
2023-05-05T22:40:40.624Z,12.50
2023-05-05T22:43:08.903Z,12.63
2023-05-05T22:45:37.265Z,12.65
2023-05-05T22:48:07.406Z,12.64
2023-05-05T22:50:36.317Z,12.73
2023-05-05T22:53:08.035Z,12.66
2023-05-05T22:55:36.364Z,12.69
2023-05-05T22:58:05.050Z,12.71
2023-05-05T23:00:33.376Z,12.74
2023-05-05T23:03:01.915Z,12.75
2023-05-05T23:05:34.425Z,12.71
2023-05-05T23:08:02.956Z,12.54
2023-05-05T23:10:31.422Z,12.42
2023-05-05T23:12:59.851Z,12.50
2023-05-05T23:15:28.706Z,12.56
2023-05-05T23:17:57.087Z,12.64
2023-05-05T23:20:25.612Z,12.78
2023-05-05T23:22:56.249Z,12.82
2023-05-05T23:25:25.121Z,12.66
2023-05-05T23:27:53.382Z,12.64
2023-05-05T23:30:21.911Z,12.61
2023-05-05T23:32:50.205Z,12.57
2023-05-05T23:35:18.564Z,12.75
2023-05-05T23:37:46.924Z,12.78
2023-05-05T23:40:16.717Z,12.79
2023-05-05T23:42:45.154Z,12.84
2023-05-05T23:45:13.627Z,12.85
2023-05-05T23:47:42.012Z,12.86
2023-05-05T23:50:10.988Z,12.75
2023-05-05T23:52:39.189Z,12.82
2023-05-05T23:55:08.802Z,12.76
2023-05-05T23:57:38.682Z,12.79
